Poquonock Bridge, Connecticut
Current Conditions -  °F | °C
As of 4:56 PM on Monday 20 Oct 2014 (Local Time) from KGON Reporting Station
Clear Clear  
Wind Chill: 55°   Ceiling: Unl
Heat Index: 55°   Visibility: 10mi
Dew Point: 41°   Wind: 10mph
Humidity: 59%   Direction: 220°SW
Pressure: 30"   Gusts: NA
Location:  41.3595°N, 72.0439°W
Report Text: KGON 202056Z 22009KT 10SM CLR 13/05 A3000 RMK AO2 SLP157 T01280050 58015
Loading
Personal Weather Stations






























Interactive Weather Map
Tropical Storm Tracking
New forecast layout! Learn more

10-Day Weather Forecast

Advertisements
Track Severe Weather on mobile